sensor_id;sensor_type;location;lat;lon;timestamp;P1;durP1;ratioP1;P2;durP2;ratioP2
79025;SDS011;71097;44.760;37.726;2023-08-24T00:00:47;8.23;;;3.42;;
79025;SDS011;71097;44.760;37.726;2023-08-24T00:01:49;6.72;;;3.58;;
79025;SDS011;71097;44.760;37.726;2023-08-24T00:02:57;7.82;;;3.40;;
79025;SDS011;71097;44.760;37.726;2023-08-24T00:04:04;6.90;;;3.47;;
79025;SDS011;71097;44.760;37.726;2023-08-24T00:05:05;5.20;;;3.10;;
79025;SDS011;71097;44.760;37.726;2023-08-24T00:06:12;6.72;;;3.38;;
79025;SDS011;71097;44.760;37.726;2023-08-24T00:07:19;6.00;;;3.50;;
79025;SDS011;71097;44.760;37.726;2023-08-24T00:08:25;7.15;;;3.88;;
79025;SDS011;71097;44.760;37.726;2023-08-24T00:09:33;6.93;;;3.60;;
79025;SDS011;71097;44.760;37.726;2023-08-24T00:10:42;7.22;;;3.65;;
79025;SDS011;71097;44.760;37.726;2023-08-24T00:12:06;5.25;;;3.40;;
79025;SDS011;71097;44.760;37.726;2023-08-24T00:13:08;13.82;;;4.95;;
79025;SDS011;71097;44.760;37.726;2023-08-24T00:14:15;8.05;;;4.90;;
79025;SDS011;71097;44.760;37.726;2023-08-24T00:15:22;12.25;;;4.40;;
79025;SDS011;71097;44.760;37.726;2023-08-24T00:16:29;9.65;;;4.50;;
79025;SDS011;71097;44.760;37.726;2023-08-24T00:17:37;9.07;;;3.85;;
79025;SDS011;71097;44.760;37.726;2023-08-24T00:18:38;7.03;;;4.15;;
79025;SDS011;71097;44.760;37.726;2023-08-24T00:19:40;11.18;;;4.13;;
79025;SDS011;71097;44.760;37.726;2023-08-24T00:20:41;8.30;;;4.15;;
79025;SDS011;71097;44.760;37.726;2023-08-24T00:21:48;7.32;;;4.05;;
79025;SDS011;71097;44.760;37.726;2023-08-24T00:22:50;7.30;;;3.65;;
79025;SDS011;71097;44.760;37.726;2023-08-24T00:23:51;10.73;;;5.15;;
79025;SDS011;71097;44.760;37.726;2023-08-24T00:24:53;7.65;;;4.35;;
79025;SDS011;71097;44.760;37.726;2023-08-24T00:25:55;8.93;;;4.18;;
79025;SDS011;71097;44.760;37.726;2023-08-24T00:26:56;5.97;;;3.80;;
79025;SDS011;71097;44.760;37.726;2023-08-24T00:27:58;7.88;;;4.15;;
79025;SDS011;71097;44.760;37.726;2023-08-24T00:29:04;8.18;;;3.33;;
79025;SDS011;71097;44.760;37.726;2023-08-24T00:30:11;8.18;;;4.15;;
79025;SDS011;71097;44.760;37.726;2023-08-24T00:31:15;11.13;;;4.32;;
79025;SDS011;71097;44.760;37.726;2023-08-24T00:32:22;6.53;;;3.97;;
79025;SDS011;71097;44.760;37.726;2023-08-24T00:33:30;7.88;;;3.47;;
79025;SDS011;71097;44.760;37.726;2023-08-24T00:34:37;7.78;;;4.00;;
79025;SDS011;71097;44.760;37.726;2023-08-24T00:35:44;7.70;;;4.43;;
79025;SDS011;71097;44.760;37.726;2023-08-24T00:36:51;9.15;;;4.25;;
79025;SDS011;71097;44.760;37.726;2023-08-24T00:37:53;7.32;;;4.97;;
79025;SDS011;71097;44.760;37.726;2023-08-24T00:38:54;8.00;;;4.93;;
79025;SDS011;71097;44.760;37.726;2023-08-24T00:39:56;14.73;;;5.32;;
79025;SDS011;71097;44.760;37.726;2023-08-24T00:40:58;10.05;;;5.32;;
79025;SDS011;71097;44.760;37.726;2023-08-24T00:42:01;7.68;;;4.10;;
79025;SDS011;71097;44.760;37.726;2023-08-24T00:43:02;9.52;;;4.35;;
79025;SDS011;71097;44.760;37.726;2023-08-24T00:44:09;6.65;;;4.18;;
79025;SDS011;71097;44.760;37.726;2023-08-24T00:45:16;6.68;;;4.85;;
79025;SDS011;71097;44.760;37.726;2023-08-24T00:46:23;7.32;;;4.47;;
79025;SDS011;71097;44.760;37.726;2023-08-24T00:47:28;7.40;;;4.22;;
79025;SDS011;71097;44.760;37.726;2023-08-24T00:48:30;11.95;;;4.80;;
79025;SDS011;71097;44.760;37.726;2023-08-24T00:49:32;7.40;;;4.82;;
79025;SDS011;71097;44.760;37.726;2023-08-24T00:50:34;9.68;;;4.28;;
79025;SDS011;71097;44.760;37.726;2023-08-24T00:51:35;5.53;;;3.55;;
79025;SDS011;71097;44.760;37.726;2023-08-24T00:52:40;9.63;;;4.13;;
79025;SDS011;71097;44.760;37.726;2023-08-24T00:53:43;6.45;;;3.50;;
79025;SDS011;71097;44.760;37.726;2023-08-24T00:54:46;9.32;;;3.67;;
79025;SDS011;71097;44.760;37.726;2023-08-24T00:55:48;7.20;;;4.75;;
79025;SDS011;71097;44.760;37.726;2023-08-24T00:56:50;8.05;;;4.65;;
79025;SDS011;71097;44.760;37.726;2023-08-24T00:57:51;7.57;;;3.90;;
79025;SDS011;71097;44.760;37.726;2023-08-24T00:58:54;5.90;;;4.00;;
79025;SDS011;71097;44.760;37.726;2023-08-24T00:59:56;5.45;;;3.55;;
79025;SDS011;71097;44.760;37.726;2023-08-24T01:01:04;5.85;;;3.85;;
79025;SDS011;71097;44.760;37.726;2023-08-24T01:02:13;6.53;;;3.45;;
79025;SDS011;71097;44.760;37.726;2023-08-24T01:03:23;6.47;;;3.75;;
79025;SDS011;71097;44.760;37.726;2023-08-24T01:04:26;8.70;;;4.22;;
79025;SDS011;71097;44.760;37.726;2023-08-24T01:05:32;6.07;;;3.50;;
79025;SDS011;71097;44.760;37.726;2023-08-24T01:06:34;6.28;;;3.80;;
79025;SDS011;71097;44.760;37.726;2023-08-24T01:07:37;6.10;;;4.03;;
79025;SDS011;71097;44.760;37.726;2023-08-24T01:08:41;6.45;;;3.78;;
79025;SDS011;71097;44.760;37.726;2023-08-24T01:09:49;8.50;;;3.75;;
79025;SDS011;71097;44.760;37.726;2023-08-24T01:12:20;7.15;;;4.15;;
79025;SDS011;71097;44.760;37.726;2023-08-24T01:13:27;5.63;;;3.65;;
79025;SDS011;71097;44.760;37.726;2023-08-24T01:15:58;7.50;;;3.50;;
79025;SDS011;71097;44.760;37.726;2023-08-24T01:17:06;5.85;;;3.70;;
79025;SDS011;71097;44.760;37.726;2023-08-24T01:18:13;7.53;;;4.00;;
79025;SDS011;71097;44.760;37.726;2023-08-24T01:19:22;6.68;;;4.10;;
79025;SDS011;71097;44.760;37.726;2023-08-24T01:20:39;6.45;;;3.63;;
79025;SDS011;71097;44.760;37.726;2023-08-24T01:21:42;7.35;;;3.78;;
79025;SDS011;71097;44.760;37.726;2023-08-24T01:23:28;6.70;;;3.60;;
79025;SDS011;71097;44.760;37.726;2023-08-24T01:24:47;7.32;;;3.50;;
79025;SDS011;71097;44.760;37.726;2023-08-24T01:27:28;6.93;;;3.58;;
79025;SDS011;71097;44.760;37.726;2023-08-24T01:28:32;5.60;;;3.15;;
79025;SDS011;71097;44.760;37.726;2023-08-24T01:29:34;7.22;;;4.10;;
79025;SDS011;71097;44.760;37.726;2023-08-24T01:30:37;8.63;;;3.90;;
79025;SDS011;71097;44.760;37.726;2023-08-24T01:31:39;5.93;;;3.40;;
79025;SDS011;71097;44.760;37.726;2023-08-24T01:32:41;9.07;;;3.20;;
79025;SDS011;71097;44.760;37.726;2023-08-24T01:33:44;5.78;;;3.17;;
79025;SDS011;71097;44.760;37.726;2023-08-24T01:34:46;10.02;;;3.58;;
79025;SDS011;71097;44.760;37.726;2023-08-24T01:35:53;6.35;;;3.90;;
79025;SDS011;71097;44.760;37.726;2023-08-24T01:36:54;5.85;;;3.80;;
79025;SDS011;71097;44.760;37.726;2023-08-24T01:37:56;7.22;;;3.67;;
79025;SDS011;71097;44.760;37.726;2023-08-24T01:38:59;5.13;;;3.22;;
79025;SDS011;71097;44.760;37.726;2023-08-24T01:40:13;6.13;;;3.10;;
79025;SDS011;71097;44.760;37.726;2023-08-24T01:41:26;6.40;;;3.80;;
79025;SDS011;71097;44.760;37.726;2023-08-24T01:42:31;6.78;;;3.60;;
79025;SDS011;71097;44.760;37.726;2023-08-24T01:43:36;6.65;;;3.15;;
79025;SDS011;71097;44.760;37.726;2023-08-24T01:44:40;6.70;;;3.90;;
79025;SDS011;71097;44.760;37.726;2023-08-24T01:45:51;6.30;;;3.65;;
79025;SDS011;71097;44.760;37.726;2023-08-24T01:46:54;7.93;;;3.53;;
79025;SDS011;71097;44.760;37.726;2023-08-24T01:48:05;6.85;;;3.50;;
79025;SDS011;71097;44.760;37.726;2023-08-24T01:49:13;7.93;;;3.67;;
79025;SDS011;71097;44.760;37.726;2023-08-24T01:50:16;6.63;;;3.72;;
79025;SDS011;71097;44.760;37.726;2023-08-24T01:51:18;5.70;;;3.90;;
79025;SDS011;71097;44.760;37.726;2023-08-24T01:52:25;10.27;;;4.85;;
79025;SDS011;71097;44.760;37.726;2023-08-24T01:53:34;9.10;;;3.42;;
79025;SDS011;71097;44.760;37.726;2023-08-24T01:54:42;10.57;;;4.88;;
79025;SDS011;71097;44.760;37.726;2023-08-24T01:55:45;8.43;;;4.30;;
79025;SDS011;71097;44.760;37.726;2023-08-24T01:56:47;8.27;;;4.43;;
79025;SDS011;71097;44.760;37.726;2023-08-24T01:57:54;8.50;;;5.05;;
79025;SDS011;71097;44.760;37.726;2023-08-24T01:58:56;6.30;;;4.78;;
79025;SDS011;71097;44.760;37.726;2023-08-24T01:59:58;10.25;;;5.13;;
79025;SDS011;71097;44.760;37.726;2023-08-24T02:01:05;7.28;;;4.75;;
79025;SDS011;71097;44.760;37.726;2023-08-24T02:02:13;10.88;;;4.45;;
79025;SDS011;71097;44.760;37.726;2023-08-24T02:03:14;5.70;;;4.63;;
79025;SDS011;71097;44.760;37.726;2023-08-24T02:04:16;7.90;;;4.93;;
79025;SDS011;71097;44.760;37.726;2023-08-24T02:05:24;8.38;;;5.75;;
79025;SDS011;71097;44.760;37.726;2023-08-24T02:06:34;7.90;;;4.57;;
79025;SDS011;71097;44.760;37.726;2023-08-24T02:07:38;8.60;;;4.43;;
79025;SDS011;71097;44.760;37.726;2023-08-24T02:08:47;7.10;;;4.00;;
79025;SDS011;71097;44.760;37.726;2023-08-24T02:09:48;10.73;;;4.97;;
79025;SDS011;71097;44.760;37.726;2023-08-24T02:10:50;8.68;;;4.85;;
79025;SDS011;71097;44.760;37.726;2023-08-24T02:11:51;9.05;;;4.70;;
79025;SDS011;71097;44.760;37.726;2023-08-24T02:12:53;12.52;;;5.75;;
79025;SDS011;71097;44.760;37.726;2023-08-24T02:13:55;7.75;;;4.05;;
79025;SDS011;71097;44.760;37.726;2023-08-24T02:14:56;9.10;;;4.57;;
79025;SDS011;71097;44.760;37.726;2023-08-24T02:16:04;6.00;;;3.95;;
79025;SDS011;71097;44.760;37.726;2023-08-24T02:17:07;6.57;;;3.75;;
79025;SDS011;71097;44.760;37.726;2023-08-24T02:18:14;7.20;;;4.43;;
79025;SDS011;71097;44.760;37.726;2023-08-24T02:19:21;12.35;;;4.63;;
79025;SDS011;71097;44.760;37.726;2023-08-24T02:20:23;6.70;;;4.32;;
79025;SDS011;71097;44.760;37.726;2023-08-24T02:21:24;7.57;;;3.95;;
79025;SDS011;71097;44.760;37.726;2023-08-24T02:22:31;7.60;;;4.32;;
79025;SDS011;71097;44.760;37.726;2023-08-24T02:23:33;5.57;;;4.18;;
79025;SDS011;71097;44.760;37.726;2023-08-24T02:24:39;5.82;;;4.07;;
79025;SDS011;71097;44.760;37.726;2023-08-24T02:25:46;6.75;;;4.03;;
79025;SDS011;71097;44.760;37.726;2023-08-24T02:26:53;8.35;;;4.93;;
79025;SDS011;71097;44.760;37.726;2023-08-24T02:27:55;6.78;;;4.18;;
79025;SDS011;71097;44.760;37.726;2023-08-24T02:29:02;6.97;;;4.28;;
79025;SDS011;71097;44.760;37.726;2023-08-24T02:30:03;7.15;;;4.03;;
79025;SDS011;71097;44.760;37.726;2023-08-24T02:31:11;10.60;;;4.72;;
79025;SDS011;71097;44.760;37.726;2023-08-24T02:32:17;6.15;;;3.70;;
79025;SDS011;71097;44.760;37.726;2023-08-24T02:33:25;12.43;;;4.40;;
79025;SDS011;71097;44.760;37.726;2023-08-24T02:34:26;8.90;;;3.92;;
79025;SDS011;71097;44.760;37.726;2023-08-24T02:35:31;8.10;;;4.38;;
79025;SDS011;71097;44.760;37.726;2023-08-24T02:36:38;13.07;;;5.35;;
79025;SDS011;71097;44.760;37.726;2023-08-24T02:37:39;6.30;;;4.45;;
79025;SDS011;71097;44.760;37.726;2023-08-24T02:38:46;8.38;;;4.97;;
79025;SDS011;71097;44.760;37.726;2023-08-24T02:41:48;13.82;;;4.63;;
79025;SDS011;71097;44.760;37.726;2023-08-24T02:42:50;10.55;;;4.40;;
79025;SDS011;71097;44.760;37.726;2023-08-24T02:43:57;9.88;;;5.15;;
79025;SDS011;71097;44.760;37.726;2023-08-24T02:44:59;10.63;;;4.25;;
79025;SDS011;71097;44.760;37.726;2023-08-24T02:46:03;9.43;;;5.18;;
79025;SDS011;71097;44.760;37.726;2023-08-24T02:47:05;9.63;;;4.47;;
79025;SDS011;71097;44.760;37.726;2023-08-24T02:48:07;9.95;;;5.30;;
79025;SDS011;71097;44.760;37.726;2023-08-24T02:49:08;11.13;;;5.63;;
79025;SDS011;71097;44.760;37.726;2023-08-24T02:50:10;10.43;;;4.97;;
79025;SDS011;71097;44.760;37.726;2023-08-24T02:51:11;9.50;;;4.35;;
79025;SDS011;71097;44.760;37.726;2023-08-24T02:52:14;8.93;;;4.95;;
79025;SDS011;71097;44.760;37.726;2023-08-24T02:53:15;8.25;;;5.15;;
79025;SDS011;71097;44.760;37.726;2023-08-24T02:54:17;10.43;;;5.47;;
79025;SDS011;71097;44.760;37.726;2023-08-24T02:55:19;10.20;;;5.30;;
79025;SDS011;71097;44.760;37.726;2023-08-24T02:56:21;11.02;;;5.75;;
79025;SDS011;71097;44.760;37.726;2023-08-24T02:57:27;11.20;;;5.30;;
79025;SDS011;71097;44.760;37.726;2023-08-24T02:58:29;10.00;;;5.72;;
79025;SDS011;71097;44.760;37.726;2023-08-24T02:59:31;10.05;;;4.55;;
79025;SDS011;71097;44.760;37.726;2023-08-24T03:00:32;12.43;;;6.32;;
79025;SDS011;71097;44.760;37.726;2023-08-24T03:01:34;11.00;;;5.20;;
79025;SDS011;71097;44.760;37.726;2023-08-24T03:02:39;9.63;;;5.30;;
79025;SDS011;71097;44.760;37.726;2023-08-24T03:03:40;15.35;;;5.40;;
79025;SDS011;71097;44.760;37.726;2023-08-24T03:04:42;6.95;;;4.20;;
79025;SDS011;71097;44.760;37.726;2023-08-24T03:05:56;10.38;;;4.78;;
79025;SDS011;71097;44.760;37.726;2023-08-24T03:06:59;8.80;;;4.65;;
79025;SDS011;71097;44.760;37.726;2023-08-24T03:08:00;12.10;;;5.38;;
79025;SDS011;71097;44.760;37.726;2023-08-24T03:09:02;10.98;;;4.93;;
79025;SDS011;71097;44.760;37.726;2023-08-24T03:10:07;9.23;;;4.53;;
79025;SDS011;71097;44.760;37.726;2023-08-24T03:11:08;7.22;;;4.80;;
79025;SDS011;71097;44.760;37.726;2023-08-24T03:12:15;8.35;;;4.50;;
79025;SDS011;71097;44.760;37.726;2023-08-24T03:13:17;6.43;;;4.32;;
79025;SDS011;71097;44.760;37.726;2023-08-24T03:14:18;7.60;;;4.40;;
79025;SDS011;71097;44.760;37.726;2023-08-24T03:15:21;7.32;;;4.07;;
79025;SDS011;71097;44.760;37.726;2023-08-24T03:16:22;6.65;;;4.35;;
79025;SDS011;71097;44.760;37.726;2023-08-24T03:17:24;10.80;;;5.43;;
79025;SDS011;71097;44.760;37.726;2023-08-24T03:18:25;10.00;;;4.13;;
79025;SDS011;71097;44.760;37.726;2023-08-24T03:19:32;8.57;;;4.50;;
79025;SDS011;71097;44.760;37.726;2023-08-24T03:20:36;8.45;;;4.82;;
79025;SDS011;71097;44.760;37.726;2023-08-24T03:21:38;7.20;;;4.47;;
79025;SDS011;71097;44.760;37.726;2023-08-24T03:22:39;10.40;;;4.10;;
79025;SDS011;71097;44.760;37.726;2023-08-24T03:23:41;11.90;;;4.65;;
79025;SDS011;71097;44.760;37.726;2023-08-24T03:24:43;6.45;;;4.30;;
79025;SDS011;71097;44.760;37.726;2023-08-24T03:25:44;7.55;;;4.20;;
79025;SDS011;71097;44.760;37.726;2023-08-24T03:26:46;7.70;;;4.03;;
79025;SDS011;71097;44.760;37.726;2023-08-24T03:27:47;8.68;;;4.00;;
79025;SDS011;71097;44.760;37.726;2023-08-24T03:28:49;9.63;;;4.32;;
79025;SDS011;71097;44.760;37.726;2023-08-24T03:29:54;7.38;;;4.72;;
79025;SDS011;71097;44.760;37.726;2023-08-24T03:30:57;7.72;;;4.68;;
79025;SDS011;71097;44.760;37.726;2023-08-24T03:31:59;8.52;;;4.72;;
79025;SDS011;71097;44.760;37.726;2023-08-24T03:33:01;10.65;;;4.35;;
79025;SDS011;71097;44.760;37.726;2023-08-24T03:34:04;7.70;;;4.63;;
79025;SDS011;71097;44.760;37.726;2023-08-24T03:35:05;9.55;;;4.75;;
79025;SDS011;71097;44.760;37.726;2023-08-24T03:36:08;7.97;;;4.68;;
79025;SDS011;71097;44.760;37.726;2023-08-24T03:37:09;7.95;;;4.28;;
79025;SDS011;71097;44.760;37.726;2023-08-24T03:38:11;6.93;;;3.80;;
79025;SDS011;71097;44.760;37.726;2023-08-24T03:39:13;11.23;;;4.43;;
79025;SDS011;71097;44.760;37.726;2023-08-24T03:40:16;6.32;;;4.13;;
79025;SDS011;71097;44.760;37.726;2023-08-24T03:41:18;11.30;;;4.38;;
79025;SDS011;71097;44.760;37.726;2023-08-24T03:42:20;7.05;;;3.90;;
79025;SDS011;71097;44.760;37.726;2023-08-24T03:43:22;8.57;;;5.38;;
79025;SDS011;71097;44.760;37.726;2023-08-24T03:44:24;8.57;;;4.90;;
79025;SDS011;71097;44.760;37.726;2023-08-24T03:45:25;12.68;;;5.38;;
79025;SDS011;71097;44.760;37.726;2023-08-24T03:46:27;10.52;;;5.97;;
79025;SDS011;71097;44.760;37.726;2023-08-24T03:47:29;12.65;;;4.88;;
79025;SDS011;71097;44.760;37.726;2023-08-24T03:48:31;9.73;;;4.35;;
79025;SDS011;71097;44.760;37.726;2023-08-24T03:49:33;10.50;;;5.28;;
79025;SDS011;71097;44.760;37.726;2023-08-24T03:50:35;14.48;;;5.10;;
79025;SDS011;71097;44.760;37.726;2023-08-24T03:51:36;12.43;;;4.93;;
79025;SDS011;71097;44.760;37.726;2023-08-24T03:52:38;10.38;;;4.80;;
79025;SDS011;71097;44.760;37.726;2023-08-24T03:53:40;17.33;;;5.65;;
79025;SDS011;71097;44.760;37.726;2023-08-24T03:54:42;10.48;;;4.22;;
79025;SDS011;71097;44.760;37.726;2023-08-24T03:55:46;11.25;;;4.80;;
79025;SDS011;71097;44.760;37.726;2023-08-24T03:56:49;10.68;;;5.68;;
79025;SDS011;71097;44.760;37.726;2023-08-24T03:57:56;10.48;;;5.25;;
79025;SDS011;71097;44.760;37.726;2023-08-24T03:59:00;11.02;;;5.90;;
79025;SDS011;71097;44.760;37.726;2023-08-24T04:00:03;31.00;;;12.45;;
79025;SDS011;71097;44.760;37.726;2023-08-24T04:01:14;26.75;;;12.55;;
79025;SDS011;71097;44.760;37.726;2023-08-24T04:02:16;29.73;;;12.07;;
79025;SDS011;71097;44.760;37.726;2023-08-24T04:03:18;29.98;;;11.45;;
79025;SDS011;71097;44.760;37.726;2023-08-24T04:04:20;23.77;;;11.45;;
79025;SDS011;71097;44.760;37.726;2023-08-24T04:05:22;27.20;;;11.82;;
79025;SDS011;71097;44.760;37.726;2023-08-24T04:06:24;22.80;;;11.40;;
79025;SDS011;71097;44.760;37.726;2023-08-24T04:07:26;22.10;;;10.55;;
79025;SDS011;71097;44.760;37.726;2023-08-24T04:08:28;18.13;;;8.68;;
79025;SDS011;71097;44.760;37.726;2023-08-24T04:09:29;18.15;;;9.60;;
79025;SDS011;71097;44.760;37.726;2023-08-24T04:10:32;16.50;;;8.38;;
79025;SDS011;71097;44.760;37.726;2023-08-24T04:11:34;12.23;;;7.28;;
79025;SDS011;71097;44.760;37.726;2023-08-24T04:12:36;18.23;;;7.07;;
79025;SDS011;71097;44.760;37.726;2023-08-24T04:13:38;16.42;;;6.55;;
79025;SDS011;71097;44.760;37.726;2023-08-24T04:14:40;13.15;;;6.82;;
79025;SDS011;71097;44.760;37.726;2023-08-24T04:15:41;12.40;;;6.57;;
79025;SDS011;71097;44.760;37.726;2023-08-24T04:16:43;13.50;;;7.78;;
79025;SDS011;71097;44.760;37.726;2023-08-24T04:17:46;12.43;;;4.95;;
79025;SDS011;71097;44.760;37.726;2023-08-24T04:18:48;11.00;;;5.70;;
79025;SDS011;71097;44.760;37.726;2023-08-24T04:19:49;10.27;;;5.35;;
79025;SDS011;71097;44.760;37.726;2023-08-24T04:20:52;8.50;;;5.13;;
79025;SDS011;71097;44.760;37.726;2023-08-24T04:21:56;10.18;;;5.50;;
79025;SDS011;71097;44.760;37.726;2023-08-24T04:22:58;7.03;;;5.15;;
79025;SDS011;71097;44.760;37.726;2023-08-24T04:24:00;8.85;;;5.07;;
79025;SDS011;71097;44.760;37.726;2023-08-24T04:25:02;7.60;;;5.00;;
79025;SDS011;71097;44.760;37.726;2023-08-24T04:26:04;8.23;;;4.57;;
79025;SDS011;71097;44.760;37.726;2023-08-24T04:27:08;8.85;;;5.47;;
79025;SDS011;71097;44.760;37.726;2023-08-24T04:28:10;9.70;;;4.85;;
79025;SDS011;71097;44.760;37.726;2023-08-24T04:29:15;10.15;;;5.30;;
79025;SDS011;71097;44.760;37.726;2023-08-24T04:30:16;7.22;;;4.20;;
79025;SDS011;71097;44.760;37.726;2023-08-24T04:31:21;10.68;;;4.18;;
79025;SDS011;71097;44.760;37.726;2023-08-24T04:32:23;7.47;;;4.05;;
79025;SDS011;71097;44.760;37.726;2023-08-24T04:33:25;6.85;;;4.68;;
79025;SDS011;71097;44.760;37.726;2023-08-24T04:34:27;7.35;;;4.13;;
79025;SDS011;71097;44.760;37.726;2023-08-24T04:35:29;9.43;;;4.22;;
79025;SDS011;71097;44.760;37.726;2023-08-24T04:36:30;9.65;;;4.30;;
79025;SDS011;71097;44.760;37.726;2023-08-24T04:37:32;7.05;;;3.55;;
79025;SDS011;71097;44.760;37.726;2023-08-24T04:38:34;7.00;;;3.67;;
79025;SDS011;71097;44.760;37.726;2023-08-24T04:39:36;7.68;;;3.90;;
79025;SDS011;71097;44.760;37.726;2023-08-24T04:40:54;6.82;;;3.55;;
79025;SDS011;71097;44.760;37.726;2023-08-24T04:41:57;6.03;;;3.83;;
79025;SDS011;71097;44.760;37.726;2023-08-24T04:42:59;6.35;;;3.70;;
79025;SDS011;71097;44.760;37.726;2023-08-24T04:44:01;7.43;;;3.17;;
79025;SDS011;71097;44.760;37.726;2023-08-24T04:45:05;6.55;;;3.50;;
79025;SDS011;71097;44.760;37.726;2023-08-24T04:46:10;8.20;;;4.30;;
79025;SDS011;71097;44.760;37.726;2023-08-24T04:47:12;8.23;;;3.22;;
79025;SDS011;71097;44.760;37.726;2023-08-24T04:51:57;8.18;;;4.10;;
79025;SDS011;71097;44.760;37.726;2023-08-24T05:02:58;6.03;;;3.15;;
79025;SDS011;71097;44.760;37.726;2023-08-24T05:04:12;7.95;;;3.78;;
79025;SDS011;71097;44.760;37.726;2023-08-24T05:05:28;7.88;;;3.67;;
79025;SDS011;71097;44.760;37.726;2023-08-24T05:08:09;6.10;;;2.88;;
79025;SDS011;71097;44.760;37.726;2023-08-24T05:09:45;4.78;;;2.78;;
79025;SDS011;71097;44.760;37.726;2023-08-24T05:10:47;5.53;;;3.15;;
79025;SDS011;71097;44.760;37.726;2023-08-24T05:11:51;5.15;;;2.80;;
79025;SDS011;71097;44.760;37.726;2023-08-24T05:12:53;4.20;;;3.03;;
79025;SDS011;71097;44.760;37.726;2023-08-24T05:14:37;5.05;;;3.17;;
79025;SDS011;71097;44.760;37.726;2023-08-24T05:15:46;4.25;;;2.53;;
79025;SDS011;71097;44.760;37.726;2023-08-24T05:17:12;5.30;;;2.90;;
79025;SDS011;71097;44.760;37.726;2023-08-24T05:18:27;4.90;;;3.00;;
79025;SDS011;71097;44.760;37.726;2023-08-24T05:21:29;9.38;;;3.10;;
79025;SDS011;71097;44.760;37.726;2023-08-24T05:22:57;4.88;;;3.13;;
79025;SDS011;71097;44.760;37.726;2023-08-24T05:24:05;4.60;;;3.08;;
79025;SDS011;71097;44.760;37.726;2023-08-24T05:25:42;6.03;;;3.10;;
79025;SDS011;71097;44.760;37.726;2023-08-24T05:26:57;6.80;;;2.83;;
79025;SDS011;71097;44.760;37.726;2023-08-24T05:27:58;4.95;;;3.40;;
79025;SDS011;71097;44.760;37.726;2023-08-24T05:30:02;5.38;;;2.92;;
79025;SDS011;71097;44.760;37.726;2023-08-24T05:33:10;4.50;;;2.95;;
79025;SDS011;71097;44.760;37.726;2023-08-24T05:35:14;6.63;;;3.30;;
79025;SDS011;71097;44.760;37.726;2023-08-24T05:38:59;4.80;;;3.30;;
79025;SDS011;71097;44.760;37.726;2023-08-24T05:40:50;4.22;;;2.67;;
79025;SDS011;71097;44.760;37.726;2023-08-24T05:44:37;5.05;;;3.47;;
79025;SDS011;71097;44.760;37.726;2023-08-24T05:48:25;6.20;;;3.30;;
79025;SDS011;71097;44.760;37.726;2023-08-24T06:06:15;5.13;;;2.90;;
79025;SDS011;71097;44.760;37.726;2023-08-24T06:08:08;10.15;;;4.40;;
79025;SDS011;71097;44.760;37.726;2023-08-24T06:09:22;7.88;;;3.20;;
79025;SDS011;71097;44.760;37.726;2023-08-24T06:10:27;5.57;;;3.33;;
79025;SDS011;71097;44.760;37.726;2023-08-24T06:11:41;5.40;;;3.25;;
79025;SDS011;71097;44.760;37.726;2023-08-24T06:12:58;7.65;;;3.78;;
79025;SDS011;71097;44.760;37.726;2023-08-24T06:14:15;4.68;;;2.67;;
79025;SDS011;71097;44.760;37.726;2023-08-24T06:15:56;4.78;;;2.85;;
79025;SDS011;71097;44.760;37.726;2023-08-24T06:17:26;7.28;;;3.03;;
79025;SDS011;71097;44.760;37.726;2023-08-24T06:18:28;4.90;;;3.08;;
79025;SDS011;71097;44.760;37.726;2023-08-24T06:19:42;6.20;;;3.50;;
79025;SDS011;71097;44.760;37.726;2023-08-24T06:21:01;6.07;;;3.47;;
79025;SDS011;71097;44.760;37.726;2023-08-24T06:24:39;6.93;;;3.17;;
79025;SDS011;71097;44.760;37.726;2023-08-24T06:26:17;5.93;;;3.05;;
79025;SDS011;71097;44.760;37.726;2023-08-24T06:27:30;4.57;;;2.97;;
79025;SDS011;71097;44.760;37.726;2023-08-24T06:28:49;6.68;;;2.80;;
79025;SDS011;71097;44.760;37.726;2023-08-24T06:33:51;5.60;;;3.13;;
79025;SDS011;71097;44.760;37.726;2023-08-24T06:35:25;8.52;;;4.72;;
79025;SDS011;71097;44.760;37.726;2023-08-24T06:37:16;4.50;;;2.88;;
79025;SDS011;71097;44.760;37.726;2023-08-24T06:40:24;4.57;;;2.55;;
79025;SDS011;71097;44.760;37.726;2023-08-24T06:42:05;5.00;;;2.70;;
79025;SDS011;71097;44.760;37.726;2023-08-24T06:45:33;7.57;;;2.88;;
79025;SDS011;71097;44.760;37.726;2023-08-24T06:47:07;8.35;;;3.20;;
79025;SDS011;71097;44.760;37.726;2023-08-24T06:48:55;9.27;;;3.17;;
79025;SDS011;71097;44.760;37.726;2023-08-24T06:50:13;6.00;;;2.88;;
79025;SDS011;71097;44.760;37.726;2023-08-24T06:53:23;5.65;;;2.40;;
79025;SDS011;71097;44.760;37.726;2023-08-24T06:55:02;5.72;;;4.38;;
79025;SDS011;71097;44.760;37.726;2023-08-24T06:56:35;4.90;;;3.17;;
79025;SDS011;71097;44.760;37.726;2023-08-24T07:00:15;6.63;;;3.33;;
79025;SDS011;71097;44.760;37.726;2023-08-24T07:01:59;7.17;;;5.13;;
79025;SDS011;71097;44.760;37.726;2023-08-24T07:03:24;5.18;;;3.10;;
79025;SDS011;71097;44.760;37.726;2023-08-24T07:04:59;5.55;;;2.70;;
79025;SDS011;71097;44.760;37.726;2023-08-24T07:06:29;5.75;;;3.20;;
79025;SDS011;71097;44.760;37.726;2023-08-24T07:08:24;7.72;;;3.03;;
79025;SDS011;71097;44.760;37.726;2023-08-24T07:11:34;5.32;;;4.13;;
79025;SDS011;71097;44.760;37.726;2023-08-24T07:14:32;6.35;;;2.95;;
79025;SDS011;71097;44.760;37.726;2023-08-24T07:15:54;4.10;;;2.58;;
79025;SDS011;71097;44.760;37.726;2023-08-24T07:17:34;4.95;;;3.05;;
79025;SDS011;71097;44.760;37.726;2023-08-24T07:19:26;4.32;;;2.85;;
79025;SDS011;71097;44.760;37.726;2023-08-24T07:20:32;5.30;;;2.67;;
79025;SDS011;71097;44.760;37.726;2023-08-24T07:21:40;5.68;;;2.95;;
79025;SDS011;71097;44.760;37.726;2023-08-24T07:22:52;5.68;;;3.30;;
79025;SDS011;71097;44.760;37.726;2023-08-24T07:24:11;5.68;;;3.22;;
79025;SDS011;71097;44.760;37.726;2023-08-24T07:25:29;5.85;;;2.72;;
79025;SDS011;71097;44.760;37.726;2023-08-24T07:26:34;4.78;;;2.58;;
79025;SDS011;71097;44.760;37.726;2023-08-24T07:29:24;5.70;;;3.63;;
79025;SDS011;71097;44.760;37.726;2023-08-24T07:30:37;7.78;;;7.10;;
79025;SDS011;71097;44.760;37.726;2023-08-24T07:31:52;4.93;;;2.80;;
79025;SDS011;71097;44.760;37.726;2023-08-24T07:33:21;5.72;;;2.47;;
79025;SDS011;71097;44.760;37.726;2023-08-24T07:34:58;7.22;;;6.00;;
79025;SDS011;71097;44.760;37.726;2023-08-24T07:36:06;8.15;;;3.92;;
79025;SDS011;71097;44.760;37.726;2023-08-24T07:37:20;5.07;;;2.75;;
79025;SDS011;71097;44.760;37.726;2023-08-24T07:38:26;4.45;;;3.22;;
79025;SDS011;71097;44.760;37.726;2023-08-24T07:40:01;5.68;;;2.92;;
79025;SDS011;71097;44.760;37.726;2023-08-24T07:41:28;7.07;;;2.95;;
79025;SDS011;71097;44.760;37.726;2023-08-24T07:42:51;6.13;;;3.13;;
79025;SDS011;71097;44.760;37.726;2023-08-24T07:44:11;5.45;;;3.38;;
79025;SDS011;71097;44.760;37.726;2023-08-24T07:45:36;4.30;;;2.60;;
79025;SDS011;71097;44.760;37.726;2023-08-24T07:47:01;5.40;;;2.70;;
79025;SDS011;71097;44.760;37.726;2023-08-24T07:48:50;3.85;;;2.75;;
79025;SDS011;71097;44.760;37.726;2023-08-24T07:51:20;5.45;;;3.47;;
79025;SDS011;71097;44.760;37.726;2023-08-24T07:52:44;4.40;;;2.40;;
79025;SDS011;71097;44.760;37.726;2023-08-24T07:54:05;5.10;;;2.97;;
79025;SDS011;71097;44.760;37.726;2023-08-24T07:55:15;5.03;;;3.00;;
79025;SDS011;71097;44.760;37.726;2023-08-24T07:56:50;5.22;;;2.90;;
79025;SDS011;71097;44.760;37.726;2023-08-24T07:58:31;4.68;;;2.67;;